sensor_id;sensor_type;location;lat;lon;timestamp;pressure;altitude;pressure_sealevel;temperature
68440;BMP180;55421;51.600;5.718;2023-02-07T00:01:25;88579.00;;;1.30
68440;BMP180;55421;51.600;5.718;2023-02-07T00:03:53;71145.60;;;1.30
68440;BMP180;55421;51.600;5.718;2023-02-07T00:06:27;54019.40;;;1.30
68440;BMP180;55421;51.600;5.718;2023-02-07T00:08:54;42372.20;;;1.30
68440;BMP180;55421;51.600;5.718;2023-02-07T00:11:22;53266.80;;;1.30
68440;BMP180;55421;51.600;5.718;2023-02-07T00:13:52;61509.40;;;1.30
68440;BMP180;55421;51.600;5.718;2023-02-07T00:16:21;51193.40;;;1.30
68440;BMP180;55421;51.600;5.718;2023-02-07T00:18:48;51065.20;;;1.30
68440;BMP180;55421;51.600;5.718;2023-02-07T00:21:18;67485.80;;;1.20
68440;BMP180;55421;51.600;5.718;2023-02-07T00:23:46;88907.80;;;1.20
68440;BMP180;55421;51.600;5.718;2023-02-07T00:26:15;95104.40;;;1.10
68440;BMP180;55421;51.600;5.718;2023-02-07T00:28:42;97935.00;;;1.10
68440;BMP180;55421;51.600;5.718;2023-02-07T00:31:13;99012.60;;;1.10
68440;BMP180;55421;51.600;5.718;2023-02-07T00:33:42;95794.20;;;1.08
68440;BMP180;55421;51.600;5.718;2023-02-07T00:36:16;90093.80;;;1.02
68440;BMP180;55421;51.600;5.718;2023-02-07T00:38:44;85961.60;;;1.00
68440;BMP180;55421;51.600;5.718;2023-02-07T00:41:12;85107.40;;;0.92
68440;BMP180;55421;51.600;5.718;2023-02-07T00:43:45;91163.40;;;0.90
68440;BMP180;55421;51.600;5.718;2023-02-07T00:46:14;91546.60;;;0.88
68440;BMP180;55421;51.600;5.718;2023-02-07T00:48:41;106675.20;;;0.84
68440;BMP180;55421;51.600;5.718;2023-02-07T00:51:10;101537.00;;;0.90
68440;BMP180;55421;51.600;5.718;2023-02-07T00:53:37;94619.60;;;0.84
68440;BMP180;55421;51.600;5.718;2023-02-07T00:56:07;98806.00;;;0.80
68440;BMP180;55421;51.600;5.718;2023-02-07T00:58:34;103756.00;;;0.80
68440;BMP180;55421;51.600;5.718;2023-02-07T01:01:02;127404.40;;;0.80
68440;BMP180;55421;51.600;5.718;2023-02-07T01:03:29;126835.60;;;0.78
68440;BMP180;55421;51.600;5.718;2023-02-07T01:05:56;131171.41;;;0.70
68440;BMP180;55421;51.600;5.718;2023-02-07T01:08:23;135413.41;;;0.70
68440;BMP180;55421;51.600;5.718;2023-02-07T01:10:49;135094.59;;;0.70
68440;BMP180;55421;51.600;5.718;2023-02-07T01:13:16;140498.59;;;0.70
68440;BMP180;55421;51.600;5.718;2023-02-07T01:15:45;141169.41;;;0.60
68440;BMP180;55421;51.600;5.718;2023-02-07T01:18:13;142316.41;;;0.60
68440;BMP180;55421;51.600;5.718;2023-02-07T01:20:40;141286.59;;;0.56
68440;BMP180;55421;51.600;5.718;2023-02-07T01:23:06;140384.41;;;0.50
68440;BMP180;55421;51.600;5.718;2023-02-07T01:25:33;139239.41;;;0.50
68440;BMP180;55421;51.600;5.718;2023-02-07T01:28:00;141304.00;;;0.54
68440;BMP180;55421;51.600;5.718;2023-02-07T01:30:27;135536.00;;;0.58
68440;BMP180;55421;51.600;5.718;2023-02-07T01:32:53;139448.80;;;0.50
68440;BMP180;55421;51.600;5.718;2023-02-07T01:35:20;142874.59;;;0.50
68440;BMP180;55421;51.600;5.718;2023-02-07T01:37:46;146804.41;;;0.50
68440;BMP180;55421;51.600;5.718;2023-02-07T01:40:13;147361.80;;;0.40
68440;BMP180;55421;51.600;5.718;2023-02-07T01:42:40;147854.59;;;0.40
68440;BMP180;55421;51.600;5.718;2023-02-07T01:45:29;148806.00;;;0.40
68440;BMP180;55421;51.600;5.718;2023-02-07T01:48:02;147266.59;;;0.30
68440;BMP180;55421;51.600;5.718;2023-02-07T01:50:30;144868.00;;;0.20
68440;BMP180;55421;51.600;5.718;2023-02-07T01:52:59;146022.59;;;0.20
68440;BMP180;55421;51.600;5.718;2023-02-07T01:55:32;145526.59;;;0.18
68440;BMP180;55421;51.600;5.718;2023-02-07T01:58:03;144993.00;;;0.18
68440;BMP180;55421;51.600;5.718;2023-02-07T02:00:31;142494.59;;;0.18
68440;BMP180;55421;51.600;5.718;2023-02-07T02:02:58;142561.59;;;0.16
68440;BMP180;55421;51.600;5.718;2023-02-07T02:05:28;142045.20;;;0.10
68440;BMP180;55421;51.600;5.718;2023-02-07T02:07:55;148254.00;;;0.10
68440;BMP180;55421;51.600;5.718;2023-02-07T02:10:41;147930.59;;;0.00
68440;BMP180;55421;51.600;5.718;2023-02-07T02:13:56;149211.20;;;0.00
68440;BMP180;55421;51.600;5.718;2023-02-07T02:40:33;140629.59;;;-0.30
68440;BMP180;55421;51.600;5.718;2023-02-07T02:43:29;142760.59;;;-0.30
68440;BMP180;55421;51.600;5.718;2023-02-07T02:46:03;142655.41;;;-0.30
68440;BMP180;55421;51.600;5.718;2023-02-07T02:48:34;139746.59;;;-0.30
68440;BMP180;55421;51.600;5.718;2023-02-07T02:51:03;132896.80;;;-0.30
68440;BMP180;55421;51.600;5.718;2023-02-07T02:53:30;137720.00;;;-0.30
68440;BMP180;55421;51.600;5.718;2023-02-07T02:59:16;130010.60;;;-0.30
68440;BMP180;55421;51.600;5.718;2023-02-07T03:02:29;145541.80;;;-0.30
68440;BMP180;55421;51.600;5.718;2023-02-07T03:05:17;144896.80;;;-0.40
68440;BMP180;55421;51.600;5.718;2023-02-07T03:10:48;146022.00;;;-0.50
68440;BMP180;55421;51.600;5.718;2023-02-07T03:14:09;141519.80;;;-0.50
68440;BMP180;55421;51.600;5.718;2023-02-07T03:16:49;139619.20;;;-0.56
68440;BMP180;55421;51.600;5.718;2023-02-07T03:19:27;138473.80;;;-0.60
68440;BMP180;55421;51.600;5.718;2023-02-07T03:21:59;136753.59;;;-0.68
68440;BMP180;55421;51.600;5.718;2023-02-07T03:24:32;135595.80;;;-0.68
68440;BMP180;55421;51.600;5.718;2023-02-07T03:27:05;134537.59;;;-0.64
68440;BMP180;55421;51.600;5.718;2023-02-07T03:29:35;133234.20;;;-0.60
68440;BMP180;55421;51.600;5.718;2023-02-07T03:32:05;129952.20;;;-0.60
68440;BMP180;55421;51.600;5.718;2023-02-07T03:34:42;122181.20;;;-0.60
68440;BMP180;55421;51.600;5.718;2023-02-07T03:37:24;113188.20;;;-0.60
68440;BMP180;55421;51.600;5.718;2023-02-07T03:39:52;115629.40;;;-0.60
68440;BMP180;55421;51.600;5.718;2023-02-07T03:42:41;108322.80;;;-0.62
68440;BMP180;55421;51.600;5.718;2023-02-07T03:45:14;106163.20;;;-0.62
68440;BMP180;55421;51.600;5.718;2023-02-07T03:47:42;103141.40;;;-0.70
68440;BMP180;55421;51.600;5.718;2023-02-07T03:50:09;103123.60;;;-0.70
68440;BMP180;55421;51.600;5.718;2023-02-07T03:52:36;104537.40;;;-0.70
68440;BMP180;55421;51.600;5.718;2023-02-07T03:55:03;102934.80;;;-0.72
68440;BMP180;55421;51.600;5.718;2023-02-07T03:57:30;100597.40;;;-0.80
68440;BMP180;55421;51.600;5.718;2023-02-07T03:59:57;93252.00;;;-0.80
68440;BMP180;55421;51.600;5.718;2023-02-07T04:02:24;90884.40;;;-0.80
68440;BMP180;55421;51.600;5.718;2023-02-07T04:04:51;93357.80;;;-0.80
68440;BMP180;55421;51.600;5.718;2023-02-07T04:07:17;95091.00;;;-0.80
68440;BMP180;55421;51.600;5.718;2023-02-07T04:09:44;104496.80;;;-0.82
68440;BMP180;55421;51.600;5.718;2023-02-07T04:12:10;100386.40;;;-0.90
68440;BMP180;55421;51.600;5.718;2023-02-07T04:14:37;109104.20;;;-0.90
68440;BMP180;55421;51.600;5.718;2023-02-07T04:17:03;104137.40;;;-0.94
68440;BMP180;55421;51.600;5.718;2023-02-07T04:19:30;107178.20;;;-0.90
68440;BMP180;55421;51.600;5.718;2023-02-07T04:21:56;114744.40;;;-0.80
68440;BMP180;55421;51.600;5.718;2023-02-07T04:24:23;128632.20;;;-0.70
68440;BMP180;55421;51.600;5.718;2023-02-07T04:26:49;122855.40;;;-0.70
68440;BMP180;55421;51.600;5.718;2023-02-07T04:29:16;117725.80;;;-0.70
68440;BMP180;55421;51.600;5.718;2023-02-07T04:31:42;113501.00;;;-0.70
68440;BMP180;55421;51.600;5.718;2023-02-07T04:34:09;122003.60;;;-0.70
68440;BMP180;55421;51.600;5.718;2023-02-07T04:36:36;125715.20;;;-0.70
68440;BMP180;55421;51.600;5.718;2023-02-07T04:39:03;126546.00;;;-0.70
68440;BMP180;55421;51.600;5.718;2023-02-07T04:41:29;126929.60;;;-0.66
68440;BMP180;55421;51.600;5.718;2023-02-07T04:43:56;122237.40;;;-0.70
68440;BMP180;55421;51.600;5.718;2023-02-07T04:46:22;124166.80;;;-0.70
68440;BMP180;55421;51.600;5.718;2023-02-07T04:48:49;119238.40;;;-0.70
68440;BMP180;55421;51.600;5.718;2023-02-07T04:51:15;126506.00;;;-0.70
68440;BMP180;55421;51.600;5.718;2023-02-07T04:53:42;134359.59;;;-0.70
68440;BMP180;55421;51.600;5.718;2023-02-07T04:56:08;143774.59;;;-0.72
68440;BMP180;55421;51.600;5.718;2023-02-07T04:58:35;150161.80;;;-0.80
68440;BMP180;55421;51.600;5.718;2023-02-07T05:01:01;151999.41;;;-0.80
68440;BMP180;55421;51.600;5.718;2023-02-07T05:03:28;153598.59;;;-0.86
68440;BMP180;55421;51.600;5.718;2023-02-07T05:05:54;138280.00;;;-0.90
68440;BMP180;55421;51.600;5.718;2023-02-07T05:08:21;133690.80;;;-0.90
68440;BMP180;55421;51.600;5.718;2023-02-07T05:10:53;139026.59;;;-0.98
68440;BMP180;55421;51.600;5.718;2023-02-07T05:13:21;125691.60;;;-1.00
68440;BMP180;55421;51.600;5.718;2023-02-07T05:15:48;111342.60;;;-1.00
68440;BMP180;55421;51.600;5.718;2023-02-07T05:18:15;116899.80;;;-1.00
68440;BMP180;55421;51.600;5.718;2023-02-07T05:20:42;119317.00;;;-1.02
68440;BMP180;55421;51.600;5.718;2023-02-07T05:23:09;107893.60;;;-1.02
68440;BMP180;55421;51.600;5.718;2023-02-07T05:25:36;96304.40;;;-1.08
68440;BMP180;55421;51.600;5.718;2023-02-07T05:28:03;88304.00;;;-1.10
68440;BMP180;55421;51.600;5.718;2023-02-07T05:30:30;105335.60;;;-1.10
68440;BMP180;55421;51.600;5.718;2023-02-07T05:32:56;106653.80;;;-1.10
68440;BMP180;55421;51.600;5.718;2023-02-07T05:35:40;96444.40;;;-1.06
68440;BMP180;55421;51.600;5.718;2023-02-07T05:38:12;97416.00;;;-1.02
68440;BMP180;55421;51.600;5.718;2023-02-07T05:40:39;108129.40;;;-1.06
68440;BMP180;55421;51.600;5.718;2023-02-07T05:43:08;104824.00;;;-1.10
68440;BMP180;55421;51.600;5.718;2023-02-07T05:45:35;94043.00;;;-1.10
68440;BMP180;55421;51.600;5.718;2023-02-07T05:48:02;103195.80;;;-1.12
68440;BMP180;55421;51.600;5.718;2023-02-07T05:50:29;101252.00;;;-1.20
68440;BMP180;55421;51.600;5.718;2023-02-07T05:52:55;78599.80;;;-1.20
68440;BMP180;55421;51.600;5.718;2023-02-07T05:55:22;84267.80;;;-1.30
68440;BMP180;55421;51.600;5.718;2023-02-07T05:57:48;85594.20;;;-1.30
68440;BMP180;55421;51.600;5.718;2023-02-07T06:00:17;84544.40;;;-1.40
68440;BMP180;55421;51.600;5.718;2023-02-07T06:02:44;79785.60;;;-1.40
68440;BMP180;55421;51.600;5.718;2023-02-07T06:05:16;72951.80;;;-1.50
68440;BMP180;55421;51.600;5.718;2023-02-07T06:07:43;79169.20;;;-1.50
68440;BMP180;55421;51.600;5.718;2023-02-07T06:10:10;84675.40;;;-1.60
68440;BMP180;55421;51.600;5.718;2023-02-07T06:12:38;79457.60;;;-1.64
68440;BMP180;55421;51.600;5.718;2023-02-07T06:15:06;125952.40;;;-1.70
68440;BMP180;55421;51.600;5.718;2023-02-07T06:17:32;131751.41;;;-1.70
68440;BMP180;55421;51.600;5.718;2023-02-07T06:19:59;126563.40;;;-1.70
68440;BMP180;55421;51.600;5.718;2023-02-07T06:22:25;133192.80;;;-1.70
68440;BMP180;55421;51.600;5.718;2023-02-07T06:24:52;132853.80;;;-1.72
68440;BMP180;55421;51.600;5.718;2023-02-07T06:27:18;135858.00;;;-1.80
68440;BMP180;55421;51.600;5.718;2023-02-07T06:29:45;139818.20;;;-1.80
68440;BMP180;55421;51.600;5.718;2023-02-07T06:32:11;134656.59;;;-1.80
68440;BMP180;55421;51.600;5.718;2023-02-07T06:34:38;126077.00;;;-1.80
68440;BMP180;55421;51.600;5.718;2023-02-07T06:37:04;119644.00;;;-1.82
68440;BMP180;55421;51.600;5.718;2023-02-07T06:39:31;113611.20;;;-1.86
68440;BMP180;55421;51.600;5.718;2023-02-07T06:41:57;102791.20;;;-1.90
68440;BMP180;55421;51.600;5.718;2023-02-07T06:44:24;103923.80;;;-1.90
68440;BMP180;55421;51.600;5.718;2023-02-07T06:46:50;106017.00;;;-1.90
68440;BMP180;55421;51.600;5.718;2023-02-07T06:49:16;106893.60;;;-1.90
68440;BMP180;55421;51.600;5.718;2023-02-07T06:51:43;96359.60;;;-1.88
68440;BMP180;55421;51.600;5.718;2023-02-07T06:54:09;91403.00;;;-1.90
68440;BMP180;55421;51.600;5.718;2023-02-07T06:56:36;116208.20;;;-1.90
68440;BMP180;55421;51.600;5.718;2023-02-07T06:59:03;117402.40;;;-1.94
68440;BMP180;55421;51.600;5.718;2023-02-07T07:01:30;121296.40;;;-2.02
68440;BMP180;55421;51.600;5.718;2023-02-07T07:03:58;83479.80;;;-2.16
68440;BMP180;55421;51.600;5.718;2023-02-07T07:06:24;66367.80;;;-2.20
68440;BMP180;55421;51.600;5.718;2023-02-07T07:08:51;80721.80;;;-2.26
68440;BMP180;55421;51.600;5.718;2023-02-07T07:11:18;95463.80;;;-2.30
68440;BMP180;55421;51.600;5.718;2023-02-07T07:13:45;105505.40;;;-2.30
68440;BMP180;55421;51.600;5.718;2023-02-07T07:16:12;123877.00;;;-2.30
68440;BMP180;55421;51.600;5.718;2023-02-07T07:18:39;104384.00;;;-2.30
68440;BMP180;55421;51.600;5.718;2023-02-07T07:21:07;77300.60;;;-2.20
68440;BMP180;55421;51.600;5.718;2023-02-07T07:23:33;70017.40;;;-2.20
68440;BMP180;55421;51.600;5.718;2023-02-07T07:26:02;74433.20;;;-2.20
68440;BMP180;55421;51.600;5.718;2023-02-07T07:28:29;75088.20;;;-2.20
68440;BMP180;55421;51.600;5.718;2023-02-07T07:31:05;73021.00;;;-2.20
68440;BMP180;55421;51.600;5.718;2023-02-07T07:33:33;77174.40;;;-2.20
68440;BMP180;55421;51.600;5.718;2023-02-07T07:36:01;80180.80;;;-2.20
68440;BMP180;55421;51.600;5.718;2023-02-07T07:38:27;90084.20;;;-2.14
68440;BMP180;55421;51.600;5.718;2023-02-07T07:40:54;92707.00;;;-2.10
68440;BMP180;55421;51.600;5.718;2023-02-07T07:43:20;100146.40;;;-2.10
68440;BMP180;55421;51.600;5.718;2023-02-07T07:45:55;108563.20;;;-2.14
68440;BMP180;55421;51.600;5.718;2023-02-07T07:48:23;118414.00;;;-2.12
68440;BMP180;55421;51.600;5.718;2023-02-07T07:50:51;114376.60;;;-2.14
68440;BMP180;55421;51.600;5.718;2023-02-07T07:53:19;115326.20;;;-2.10
68440;BMP180;55421;51.600;5.718;2023-02-07T07:55:55;115639.80;;;-2.12
68440;BMP180;55421;51.600;5.718;2023-02-07T07:58:24;127304.00;;;-2.20
68440;BMP180;55421;51.600;5.718;2023-02-07T08:00:51;134447.41;;;-2.20
68440;BMP180;55421;51.600;5.718;2023-02-07T08:03:18;142306.20;;;-2.20
68440;BMP180;55421;51.600;5.718;2023-02-07T08:05:46;142620.80;;;-2.30
68440;BMP180;55421;51.600;5.718;2023-02-07T08:08:13;146815.59;;;-2.30
68440;BMP180;55421;51.600;5.718;2023-02-07T08:10:40;149675.59;;;-2.30
68440;BMP180;55421;51.600;5.718;2023-02-07T08:13:07;152312.20;;;-2.30
68440;BMP180;55421;51.600;5.718;2023-02-07T08:15:34;153038.41;;;-2.30
68440;BMP180;55421;51.600;5.718;2023-02-07T08:18:01;152314.41;;;-2.30
68440;BMP180;55421;51.600;5.718;2023-02-07T08:20:27;156277.20;;;-2.20
68440;BMP180;55421;51.600;5.718;2023-02-07T08:22:54;155503.00;;;-2.12
68440;BMP180;55421;51.600;5.718;2023-02-07T08:25:20;154540.41;;;-2.02
68440;BMP180;55421;51.600;5.718;2023-02-07T08:27:47;155478.00;;;-1.96
68440;BMP180;55421;51.600;5.718;2023-02-07T08:30:14;156050.00;;;-1.90
68440;BMP180;55421;51.600;5.718;2023-02-07T08:32:41;155861.20;;;-1.82
68440;BMP180;55421;51.600;5.718;2023-02-07T08:35:08;156220.80;;;-1.80
68440;BMP180;55421;51.600;5.718;2023-02-07T08:37:35;156759.59;;;-1.70
68440;BMP180;55421;51.600;5.718;2023-02-07T08:40:04;157634.41;;;-1.62
68440;BMP180;55421;51.600;5.718;2023-02-07T08:42:31;157919.80;;;-1.58
68440;BMP180;55421;51.600;5.718;2023-02-07T08:44:58;158229.59;;;-1.50
68440;BMP180;55421;51.600;5.718;2023-02-07T08:47:25;158399.80;;;-1.40
68440;BMP180;55421;51.600;5.718;2023-02-07T08:49:51;157823.80;;;-1.40
68440;BMP180;55421;51.600;5.718;2023-02-07T08:52:18;157809.59;;;-1.40
68440;BMP180;55421;51.600;5.718;2023-02-07T08:54:44;157567.59;;;-1.40
68440;BMP180;55421;51.600;5.718;2023-02-07T08:57:11;156564.59;;;-1.30
68440;BMP180;55421;51.600;5.718;2023-02-07T08:59:37;156194.59;;;-1.30
68440;BMP180;55421;51.600;5.718;2023-02-07T09:02:04;156520.59;;;-1.20
68440;BMP180;55421;51.600;5.718;2023-02-07T09:04:30;156171.41;;;-1.20
68440;BMP180;55421;51.600;5.718;2023-02-07T09:06:57;156478.20;;;-1.20
68440;BMP180;55421;51.600;5.718;2023-02-07T09:09:24;156509.41;;;-1.20
68440;BMP180;55421;51.600;5.718;2023-02-07T09:11:50;155968.20;;;-1.18
68440;BMP180;55421;51.600;5.718;2023-02-07T09:14:17;152935.00;;;-1.10
68440;BMP180;55421;51.600;5.718;2023-02-07T09:16:43;153937.59;;;-1.00
68440;BMP180;55421;51.600;5.718;2023-02-07T09:19:10;153657.41;;;-1.00
68440;BMP180;55421;51.600;5.718;2023-02-07T09:21:36;153742.59;;;-1.00
68440;BMP180;55421;51.600;5.718;2023-02-07T09:24:03;155267.59;;;-0.90
68440;BMP180;55421;51.600;5.718;2023-02-07T09:26:29;152810.59;;;-0.88
68440;BMP180;55421;51.600;5.718;2023-02-07T09:28:58;155607.00;;;-0.80
68440;BMP180;55421;51.600;5.718;2023-02-07T09:31:25;154684.20;;;-0.70
68440;BMP180;55421;51.600;5.718;2023-02-07T09:33:52;152846.80;;;-0.70
68440;BMP180;55421;51.600;5.718;2023-02-07T09:36:23;153106.80;;;-0.60
68440;BMP180;55421;51.600;5.718;2023-02-07T09:38:50;151572.59;;;-0.60
68440;BMP180;55421;51.600;5.718;2023-02-07T09:44:20;152833.00;;;-0.40
68440;BMP180;55421;51.600;5.718;2023-02-07T09:47:04;153471.41;;;-0.28
68440;BMP180;55421;51.600;5.718;2023-02-07T09:49:46;154526.80;;;-0.20
68440;BMP180;55421;51.600;5.718;2023-02-07T09:52:19;155957.59;;;-0.18
68440;BMP180;55421;51.600;5.718;2023-02-07T09:54:54;155140.59;;;-0.10
68440;BMP180;55421;51.600;5.718;2023-02-07T09:57:36;154748.80;;;-0.04
68440;BMP180;55421;51.600;5.718;2023-02-07T10:00:23;154329.20;;;0.00
68440;BMP180;55421;51.600;5.718;2023-02-07T10:05:37;155927.41;;;0.16
68440;BMP180;55421;51.600;5.718;2023-02-07T10:08:13;155973.41;;;0.20
68440;BMP180;55421;51.600;5.718;2023-02-07T10:10:42;156582.80;;;0.24
68440;BMP180;55421;51.600;5.718;2023-02-07T10:13:31;157454.20;;;0.30
68440;BMP180;55421;51.600;5.718;2023-02-07T10:16:48;157446.59;;;0.40
68440;BMP180;55421;51.600;5.718;2023-02-07T10:22:30;157896.00;;;0.60
68440;BMP180;55421;51.600;5.718;2023-02-07T10:25:42;158429.80;;;0.70
68440;BMP180;55421;51.600;5.718;2023-02-07T10:30:47;159010.20;;;0.80
68440;BMP180;55421;51.600;5.718;2023-02-07T10:33:19;159017.80;;;0.90
68440;BMP180;55421;51.600;5.718;2023-02-07T10:35:47;158836.80;;;1.00
68440;BMP180;55421;51.600;5.718;2023-02-07T10:38:27;158608.41;;;1.06
68440;BMP180;55421;51.600;5.718;2023-02-07T10:41:05;158916.00;;;1.10
68440;BMP180;55421;51.600;5.718;2023-02-07T10:43:36;158308.80;;;1.20
68440;BMP180;55421;51.600;5.718;2023-02-07T10:46:07;157356.41;;;1.28
68440;BMP180;55421;51.600;5.718;2023-02-07T10:48:36;157106.20;;;1.30
68440;BMP180;55421;51.600;5.718;2023-02-07T10:51:26;155763.00;;;1.40
68440;BMP180;55421;51.600;5.718;2023-02-07T10:54:09;154642.59;;;1.50
68440;BMP180;55421;51.600;5.718;2023-02-07T10:56:49;153675.20;;;1.66
68440;BMP180;55421;51.600;5.718;2023-02-07T10:59:41;151976.41;;;1.72
68440;BMP180;55421;51.600;5.718;2023-02-07T11:04:55;150600.41;;;1.90
68440;BMP180;55421;51.600;5.718;2023-02-07T11:07:24;148712.20;;;1.90
68440;BMP180;55421;51.600;5.718;2023-02-07T11:10:13;146923.59;;;1.92
68440;BMP180;55421;51.600;5.718;2023-02-07T11:12:49;143782.80;;;2.00
68440;BMP180;55421;51.600;5.718;2023-02-07T11:15:23;143027.59;;;2.10
68440;BMP180;55421;51.600;5.718;2023-02-07T11:17:55;143331.59;;;2.20
68440;BMP180;55421;51.600;5.718;2023-02-07T11:20:35;141853.80;;;2.30
68440;BMP180;55421;51.600;5.718;2023-02-07T11:23:11;141110.41;;;2.40
68440;BMP180;55421;51.600;5.718;2023-02-07T11:25:43;139201.00;;;2.50
68440;BMP180;55421;51.600;5.718;2023-02-07T11:28:23;135922.59;;;2.60
68440;BMP180;55421;51.600;5.718;2023-02-07T11:30:57;133552.20;;;2.64
68440;BMP180;55421;51.600;5.718;2023-02-07T11:33:27;131962.00;;;2.80
68440;BMP180;55421;51.600;5.718;2023-02-07T11:36:30;129640.00;;;2.84
68440;BMP180;55421;51.600;5.718;2023-02-07T11:38:59;123447.80;;;2.80
68440;BMP180;55421;51.600;5.718;2023-02-07T11:41:29;119742.60;;;2.80
68440;BMP180;55421;51.600;5.718;2023-02-07T11:44:16;118274.00;;;2.80
68440;BMP180;55421;51.600;5.718;2023-02-07T11:46:47;118780.40;;;2.80
68440;BMP180;55421;51.600;5.718;2023-02-07T11:49:26;119481.40;;;2.80
68440;BMP180;55421;51.600;5.718;2023-02-07T11:52:00;120138.00;;;2.90
68440;BMP180;55421;51.600;5.718;2023-02-07T11:54:29;119319.00;;;2.90
68440;BMP180;55421;51.600;5.718;2023-02-07T11:57:03;118884.20;;;2.96
68440;BMP180;55421;51.600;5.718;2023-02-07T11:59:31;118811.60;;;3.00
68440;BMP180;55421;51.600;5.718;2023-02-07T12:02:14;120715.40;;;3.00
68440;BMP180;55421;51.600;5.718;2023-02-07T12:04:42;120962.60;;;3.00
68440;BMP180;55421;51.600;5.718;2023-02-07T12:07:20;120942.60;;;2.92
68440;BMP180;55421;51.600;5.718;2023-02-07T12:09:55;120422.00;;;2.90
68440;BMP180;55421;51.600;5.718;2023-02-07T12:13:06;120483.40;;;2.90
68440;BMP180;55421;51.600;5.718;2023-02-07T12:18:28;123134.60;;;2.90
68440;BMP180;55421;51.600;5.718;2023-02-07T12:21:12;122041.00;;;2.94
68440;BMP180;55421;51.600;5.718;2023-02-07T12:24:10;118953.20;;;3.00
68440;BMP180;55421;51.600;5.718;2023-02-07T12:26:48;113034.40;;;3.00
68440;BMP180;55421;51.600;5.718;2023-02-07T12:32:25;113752.20;;;3.00
68440;BMP180;55421;51.600;5.718;2023-02-07T12:35:27;112615.20;;;3.04
68440;BMP180;55421;51.600;5.718;2023-02-07T12:41:16;110355.60;;;3.08
68440;BMP180;55421;51.600;5.718;2023-02-07T12:44:00;109122.60;;;3.10
68440;BMP180;55421;51.600;5.718;2023-02-07T12:47:08;107252.80;;;3.20
68440;BMP180;55421;51.600;5.718;2023-02-07T12:50:16;109400.00;;;3.26
68440;BMP180;55421;51.600;5.718;2023-02-07T12:53:33;112444.40;;;3.30
68440;BMP180;55421;51.600;5.718;2023-02-07T12:56:20;111477.20;;;3.40
68440;BMP180;55421;51.600;5.718;2023-02-07T12:59:05;102265.80;;;3.40
68440;BMP180;55421;51.600;5.718;2023-02-07T13:07:47;102879.40;;;3.50
68440;BMP180;55421;51.600;5.718;2023-02-07T13:10:40;101144.60;;;3.50
68440;BMP180;55421;51.600;5.718;2023-02-07T13:13:30;100858.20;;;3.50
68440;BMP180;55421;51.600;5.718;2023-02-07T13:16:42;98690.20;;;3.58
68440;BMP180;55421;51.600;5.718;2023-02-07T13:19:37;90136.20;;;3.60
68440;BMP180;55421;51.600;5.718;2023-02-07T13:24:53;75678.20;;;3.72
68440;BMP180;55421;51.600;5.718;2023-02-07T13:27:22;68381.40;;;3.80
68440;BMP180;55421;51.600;5.718;2023-02-07T13:29:51;58330.40;;;3.82
68440;BMP180;55421;51.600;5.718;2023-02-07T13:32:22;50765.60;;;3.86
68440;BMP180;55421;51.600;5.718;2023-02-07T13:35:05;47775.00;;;3.90
68440;BMP180;55421;51.600;5.718;2023-02-07T13:37:45;44945.00;;;3.90
68440;BMP180;55421;51.600;5.718;2023-02-07T13:40:53;41773.00;;;3.90
68440;BMP180;55421;51.600;5.718;2023-02-07T13:52:41;37651.20;;;3.90
68440;BMP180;55421;51.600;5.718;2023-02-07T13:55:31;35272.80;;;3.90
68440;BMP180;55421;51.600;5.718;2023-02-07T13:57:59;38615.00;;;3.90
68440;BMP180;55421;51.600;5.718;2023-02-07T14:03:31;38708.40;;;4.00
68440;BMP180;55421;51.600;5.718;2023-02-07T14:06:28;43702.00;;;4.08
68440;BMP180;55421;51.600;5.718;2023-02-07T14:11:43;48353.20;;;4.16
68440;BMP180;55421;51.600;5.718;2023-02-07T14:17:07;38485.80;;;4.10
68440;BMP180;55421;51.600;5.718;2023-02-07T14:25:19;47895.00;;;4.10
68440;BMP180;55421;51.600;5.718;2023-02-07T14:35:35;44119.00;;;4.00
68440;BMP180;55421;51.600;5.718;2023-02-07T14:38:38;40981.80;;;4.00
68440;BMP180;55421;51.600;5.718;2023-02-07T14:41:12;43537.60;;;4.10
68440;BMP180;55421;51.600;5.718;2023-02-07T14:43:51;42639.00;;;4.10
68440;BMP180;55421;51.600;5.718;2023-02-07T14:49:17;39439.20;;;4.20
68440;BMP180;55421;51.600;5.718;2023-02-07T14:51:57;36181.60;;;4.20
68440;BMP180;55421;51.600;5.718;2023-02-07T14:54:45;31575.00;;;4.12
68440;BMP180;55421;51.600;5.718;2023-02-07T15:00:49;29492.20;;;4.10
68440;BMP180;55421;51.600;5.718;2023-02-07T15:03:20;25758.80;;;4.10
68440;BMP180;55421;51.600;5.718;2023-02-07T15:05:56;21114.00;;;4.10
68440;BMP180;55421;51.600;5.718;2023-02-07T15:08:28;22095.80;;;4.00
68440;BMP180;55421;51.600;5.718;2023-02-07T15:11:00;23969.40;;;4.00
68440;BMP180;55421;51.600;5.718;2023-02-07T15:13:33;23098.20;;;3.94
68440;BMP180;55421;51.600;5.718;2023-02-07T15:16:15;23631.20;;;3.90
68440;BMP180;55421;51.600;5.718;2023-02-07T15:19:29;23665.80;;;3.80
68440;BMP180;55421;51.600;5.718;2023-02-07T15:21:56;27285.60;;;3.74
68440;BMP180;55421;51.600;5.718;2023-02-07T15:24:39;23286.00;;;3.70
68440;BMP180;55421;51.600;5.718;2023-02-07T15:27:25;24078.00;;;3.60
68440;BMP180;55421;51.600;5.718;2023-02-07T15:30:04;26485.20;;;3.60
68440;BMP180;55421;51.600;5.718;2023-02-07T15:32:41;29972.80;;;3.50
68440;BMP180;55421;51.600;5.718;2023-02-07T15:35:27;31224.00;;;3.40
68440;BMP180;55421;51.600;5.718;2023-02-07T15:38:20;31128.40;;;3.40
68440;BMP180;55421;51.600;5.718;2023-02-07T15:40:49;31025.00;;;3.32
68440;BMP180;55421;51.600;5.718;2023-02-07T15:43:31;30528.00;;;3.32
68440;BMP180;55421;51.600;5.718;2023-02-07T15:46:09;33167.00;;;3.30
68440;BMP180;55421;51.600;5.718;2023-02-07T15:48:54;34861.40;;;3.30
68440;BMP180;55421;51.600;5.718;2023-02-07T15:51:26;36915.80;;;3.30
68440;BMP180;55421;51.600;5.718;2023-02-07T15:53:59;38037.20;;;3.30
68440;BMP180;55421;51.600;5.718;2023-02-07T15:56:28;36239.40;;;3.20
68440;BMP180;55421;51.600;5.718;2023-02-07T15:59:00;33949.40;;;3.18
68440;BMP180;55421;51.600;5.718;2023-02-07T16:01:34;33905.20;;;3.10
68440;BMP180;55421;51.600;5.718;2023-02-07T16:04:02;31981.20;;;3.04
68440;BMP180;55421;51.600;5.718;2023-02-07T16:06:30;30885.40;;;3.00
68440;BMP180;55421;51.600;5.718;2023-02-07T16:09:00;28472.40;;;2.90
68440;BMP180;55421;51.600;5.718;2023-02-07T16:14:19;28383.40;;;2.80
68440;BMP180;55421;51.600;5.718;2023-02-07T16:19:34;30383.60;;;2.70
68440;BMP180;55421;51.600;5.718;2023-02-07T16:22:09;33701.40;;;2.68
68440;BMP180;55421;51.600;5.718;2023-02-07T16:24:40;32851.40;;;2.60